sensor_id;sensor_type;location;lat;lon;timestamp;P1;durP1;ratioP1;P2;durP2;ratioP2
51848;SDS011;38952;51.090;-1.832;2022-11-04T00:01:53;1.52;;;0.85;;
51848;SDS011;38952;51.090;-1.832;2022-11-04T00:04:22;2.08;;;1.20;;
51848;SDS011;38952;51.090;-1.832;2022-11-04T00:06:53;2.58;;;0.98;;
51848;SDS011;38952;51.090;-1.832;2022-11-04T00:09:23;2.28;;;0.88;;
51848;SDS011;38952;51.090;-1.832;2022-11-04T00:11:56;1.83;;;0.70;;
51848;SDS011;38952;51.090;-1.832;2022-11-04T00:14:40;1.48;;;0.73;;
51848;SDS011;38952;51.090;-1.832;2022-11-04T00:17:23;3.05;;;1.27;;
51848;SDS011;38952;51.090;-1.832;2022-11-04T00:19:53;2.83;;;1.40;;
51848;SDS011;38952;51.090;-1.832;2022-11-04T00:22:38;2.55;;;1.50;;
51848;SDS011;38952;51.090;-1.832;2022-11-04T00:25:24;4.22;;;1.60;;
51848;SDS011;38952;51.090;-1.832;2022-11-04T00:28:12;3.38;;;1.50;;
51848;SDS011;38952;51.090;-1.832;2022-11-04T00:31:06;2.67;;;1.57;;
51848;SDS011;38952;51.090;-1.832;2022-11-04T00:33:52;5.03;;;1.23;;
51848;SDS011;38952;51.090;-1.832;2022-11-04T00:36:21;1.95;;;1.13;;
51848;SDS011;38952;51.090;-1.832;2022-11-04T00:38:48;1.83;;;1.08;;
51848;SDS011;38952;51.090;-1.832;2022-11-04T00:41:36;1.45;;;0.90;;
51848;SDS011;38952;51.090;-1.832;2022-11-04T00:44:11;2.35;;;1.20;;
51848;SDS011;38952;51.090;-1.832;2022-11-04T00:46:44;3.80;;;1.33;;
51848;SDS011;38952;51.090;-1.832;2022-11-04T00:49:21;0.70;;;0.70;;
51848;SDS011;38952;51.090;-1.832;2022-11-04T00:51:46;1.60;;;0.93;;
51848;SDS011;38952;51.090;-1.832;2022-11-04T00:54:12;0.77;;;0.77;;
51848;SDS011;38952;51.090;-1.832;2022-11-04T00:56:38;4.55;;;1.40;;
51848;SDS011;38952;51.090;-1.832;2022-11-04T00:59:04;2.67;;;1.27;;
51848;SDS011;38952;51.090;-1.832;2022-11-04T01:01:30;1.88;;;1.25;;
51848;SDS011;38952;51.090;-1.832;2022-11-04T01:03:56;2.50;;;1.52;;
51848;SDS011;38952;51.090;-1.832;2022-11-04T01:06:22;1.75;;;1.08;;
51848;SDS011;38952;51.090;-1.832;2022-11-04T01:08:53;1.98;;;1.20;;
51848;SDS011;38952;51.090;-1.832;2022-11-04T01:11:24;3.28;;;1.13;;
51848;SDS011;38952;51.090;-1.832;2022-11-04T01:13:53;3.00;;;1.20;;
51848;SDS011;38952;51.090;-1.832;2022-11-04T01:16:20;1.48;;;1.10;;
51848;SDS011;38952;51.090;-1.832;2022-11-04T01:18:47;1.85;;;1.00;;
51848;SDS011;38952;51.090;-1.832;2022-11-04T01:21:16;1.00;;;0.80;;
51848;SDS011;38952;51.090;-1.832;2022-11-04T01:23:42;1.63;;;1.10;;
51848;SDS011;38952;51.090;-1.832;2022-11-04T01:26:12;0.70;;;0.70;;
51848;SDS011;38952;51.090;-1.832;2022-11-04T01:28:39;4.95;;;1.13;;
51848;SDS011;38952;51.090;-1.832;2022-11-04T01:31:09;1.67;;;1.45;;
51848;SDS011;38952;51.090;-1.832;2022-11-04T01:33:54;2.08;;;1.27;;
51848;SDS011;38952;51.090;-1.832;2022-11-04T01:36:37;1.75;;;1.10;;
51848;SDS011;38952;51.090;-1.832;2022-11-04T01:39:04;2.22;;;1.35;;
51848;SDS011;38952;51.090;-1.832;2022-11-04T01:47:16;2.10;;;1.20;;
51848;SDS011;38952;51.090;-1.832;2022-11-04T01:49:46;2.22;;;0.93;;
51848;SDS011;38952;51.090;-1.832;2022-11-04T01:52:24;3.80;;;0.90;;
51848;SDS011;38952;51.090;-1.832;2022-11-04T01:55:07;6.03;;;1.27;;
51848;SDS011;38952;51.090;-1.832;2022-11-04T01:57:40;1.73;;;1.05;;
51848;SDS011;38952;51.090;-1.832;2022-11-04T02:00:09;2.53;;;1.05;;
51848;SDS011;38952;51.090;-1.832;2022-11-04T02:02:37;2.20;;;1.00;;
51848;SDS011;38952;51.090;-1.832;2022-11-04T02:05:15;2.65;;;1.20;;
51848;SDS011;38952;51.090;-1.832;2022-11-04T02:07:41;4.85;;;1.42;;
51848;SDS011;38952;51.090;-1.832;2022-11-04T02:10:32;2.38;;;1.30;;
51848;SDS011;38952;51.090;-1.832;2022-11-04T02:13:12;3.53;;;1.40;;
51848;SDS011;38952;51.090;-1.832;2022-11-04T02:18:29;8.38;;;1.95;;
51848;SDS011;38952;51.090;-1.832;2022-11-04T02:23:49;6.57;;;3.17;;
51848;SDS011;38952;51.090;-1.832;2022-11-04T03:05:01;7.13;;;4.20;;
51848;SDS011;38952;51.090;-1.832;2022-11-04T03:07:31;9.93;;;4.65;;
51848;SDS011;38952;51.090;-1.832;2022-11-04T03:10:02;7.20;;;4.35;;
51848;SDS011;38952;51.090;-1.832;2022-11-04T03:12:32;4.97;;;3.40;;
51848;SDS011;38952;51.090;-1.832;2022-11-04T03:15:04;7.38;;;4.32;;
51848;SDS011;38952;51.090;-1.832;2022-11-04T03:17:38;7.90;;;4.13;;
51848;SDS011;38952;51.090;-1.832;2022-11-04T03:20:19;5.13;;;3.50;;
51848;SDS011;38952;51.090;-1.832;2022-11-04T03:22:50;9.68;;;4.57;;
51848;SDS011;38952;51.090;-1.832;2022-11-04T03:25:20;9.63;;;5.47;;
51848;SDS011;38952;51.090;-1.832;2022-11-04T03:28:00;6.72;;;3.70;;
51848;SDS011;38952;51.090;-1.832;2022-11-04T03:30:38;7.07;;;4.07;;
51848;SDS011;38952;51.090;-1.832;2022-11-04T03:33:53;9.73;;;4.18;;
51848;SDS011;38952;51.090;-1.832;2022-11-04T03:36:05;8.43;;;3.35;;
51848;SDS011;38952;51.090;-1.832;2022-11-04T03:38:32;6.57;;;3.53;;
51848;SDS011;38952;51.090;-1.832;2022-11-04T03:41:02;5.38;;;2.60;;
51848;SDS011;38952;51.090;-1.832;2022-11-04T03:43:50;5.38;;;2.53;;
51848;SDS011;38952;51.090;-1.832;2022-11-04T03:46:15;6.68;;;2.22;;
51848;SDS011;38952;51.090;-1.832;2022-11-04T03:48:41;4.60;;;2.25;;
51848;SDS011;38952;51.090;-1.832;2022-11-04T03:51:11;2.55;;;1.90;;
51848;SDS011;38952;51.090;-1.832;2022-11-04T03:53:39;4.55;;;1.98;;
51848;SDS011;38952;51.090;-1.832;2022-11-04T04:01:55;5.22;;;1.80;;
51848;SDS011;38952;51.090;-1.832;2022-11-04T04:04:39;4.60;;;1.98;;
51848;SDS011;38952;51.090;-1.832;2022-11-04T04:08:09;5.13;;;2.05;;
51848;SDS011;38952;51.090;-1.832;2022-11-04T04:16:19;6.25;;;2.10;;
51848;SDS011;38952;51.090;-1.832;2022-11-04T04:19:31;3.20;;;1.52;;
51848;SDS011;38952;51.090;-1.832;2022-11-04T04:24:52;4.45;;;1.63;;
51848;SDS011;38952;51.090;-1.832;2022-11-04T04:27:40;4.82;;;1.52;;
51848;SDS011;38952;51.090;-1.832;2022-11-04T04:30:39;6.40;;;2.00;;
51848;SDS011;38952;51.090;-1.832;2022-11-04T04:33:16;3.97;;;1.65;;
51848;SDS011;38952;51.090;-1.832;2022-11-04T04:35:53;4.55;;;2.08;;
51848;SDS011;38952;51.090;-1.832;2022-11-04T04:38:25;6.18;;;2.08;;
51848;SDS011;38952;51.090;-1.832;2022-11-04T04:44:01;4.47;;;1.98;;
51848;SDS011;38952;51.090;-1.832;2022-11-04T04:46:49;4.45;;;2.10;;
51848;SDS011;38952;51.090;-1.832;2022-11-04T04:52:23;3.28;;;2.00;;
51848;SDS011;38952;51.090;-1.832;2022-11-04T04:54:51;2.85;;;2.13;;
51848;SDS011;38952;51.090;-1.832;2022-11-04T04:57:16;3.40;;;2.45;;
51848;SDS011;38952;51.090;-1.832;2022-11-04T04:59:42;5.07;;;2.55;;
51848;SDS011;38952;51.090;-1.832;2022-11-04T05:02:10;5.45;;;2.97;;
51848;SDS011;38952;51.090;-1.832;2022-11-04T05:04:41;6.43;;;3.03;;
51848;SDS011;38952;51.090;-1.832;2022-11-04T05:07:09;4.05;;;2.67;;
51848;SDS011;38952;51.090;-1.832;2022-11-04T05:09:35;5.65;;;2.35;;
51848;SDS011;38952;51.090;-1.832;2022-11-04T05:12:01;5.95;;;2.88;;
51848;SDS011;38952;51.090;-1.832;2022-11-04T05:14:57;8.02;;;3.20;;
51848;SDS011;38952;51.090;-1.832;2022-11-04T05:17:22;5.47;;;3.47;;
51848;SDS011;38952;51.090;-1.832;2022-11-04T05:20:19;4.70;;;3.20;;
51848;SDS011;38952;51.090;-1.832;2022-11-04T05:22:46;9.13;;;3.45;;
51848;SDS011;38952;51.090;-1.832;2022-11-04T05:25:20;10.00;;;3.58;;
51848;SDS011;38952;51.090;-1.832;2022-11-04T05:28:07;8.45;;;3.45;;
51848;SDS011;38952;51.090;-1.832;2022-11-04T05:37:20;9.80;;;4.38;;
51848;SDS011;38952;51.090;-1.832;2022-11-04T05:40:27;11.07;;;4.28;;
51848;SDS011;38952;51.090;-1.832;2022-11-04T05:42:58;10.80;;;4.18;;
51848;SDS011;38952;51.090;-1.832;2022-11-04T05:45:51;8.60;;;3.85;;
51848;SDS011;38952;51.090;-1.832;2022-11-04T05:48:20;11.27;;;4.88;;
51848;SDS011;38952;51.090;-1.832;2022-11-04T05:53:46;18.98;;;7.18;;
51848;SDS011;38952;51.090;-1.832;2022-11-04T05:56:12;13.13;;;5.75;;
51848;SDS011;38952;51.090;-1.832;2022-11-04T05:58:49;15.82;;;6.13;;
51848;SDS011;38952;51.090;-1.832;2022-11-04T06:01:32;12.82;;;6.95;;
51848;SDS011;38952;51.090;-1.832;2022-11-04T06:04:00;14.13;;;6.85;;
51848;SDS011;38952;51.090;-1.832;2022-11-04T06:06:27;17.58;;;7.97;;
51848;SDS011;38952;51.090;-1.832;2022-11-04T06:08:54;15.00;;;7.20;;
51848;SDS011;38952;51.090;-1.832;2022-11-04T06:11:24;15.93;;;7.55;;
51848;SDS011;38952;51.090;-1.832;2022-11-04T06:13:52;13.13;;;7.90;;
51848;SDS011;38952;51.090;-1.832;2022-11-04T06:16:18;14.65;;;7.32;;
51848;SDS011;38952;51.090;-1.832;2022-11-04T06:18:44;10.90;;;7.35;;
51848;SDS011;38952;51.090;-1.832;2022-11-04T06:23:43;15.55;;;7.65;;
51848;SDS011;38952;51.090;-1.832;2022-11-04T06:26:19;12.65;;;7.32;;
51848;SDS011;38952;51.090;-1.832;2022-11-04T06:28:46;10.20;;;6.93;;
51848;SDS011;38952;51.090;-1.832;2022-11-04T06:31:11;10.18;;;7.65;;
51848;SDS011;38952;51.090;-1.832;2022-11-04T06:33:37;14.07;;;8.95;;
51848;SDS011;38952;51.090;-1.832;2022-11-04T06:36:04;22.10;;;9.15;;
51848;SDS011;38952;51.090;-1.832;2022-11-04T06:38:37;12.77;;;7.90;;
51848;SDS011;38952;51.090;-1.832;2022-11-04T06:41:04;18.30;;;8.15;;
51848;SDS011;38952;51.090;-1.832;2022-11-04T06:43:44;13.73;;;9.15;;
51848;SDS011;38952;51.090;-1.832;2022-11-04T06:46:27;12.23;;;8.13;;
51848;SDS011;38952;51.090;-1.832;2022-11-04T06:49:04;17.55;;;9.30;;
51848;SDS011;38952;51.090;-1.832;2022-11-04T06:51:34;23.48;;;10.25;;
51848;SDS011;38952;51.090;-1.832;2022-11-04T06:54:06;23.42;;;11.02;;
51848;SDS011;38952;51.090;-1.832;2022-11-04T06:56:42;18.40;;;10.02;;
51848;SDS011;38952;51.090;-1.832;2022-11-04T06:59:15;18.73;;;10.35;;
51848;SDS011;38952;51.090;-1.832;2022-11-04T07:01:42;19.58;;;9.63;;
51848;SDS011;38952;51.090;-1.832;2022-11-04T07:04:11;20.67;;;9.38;;
51848;SDS011;38952;51.090;-1.832;2022-11-04T07:06:45;26.15;;;11.23;;
51848;SDS011;38952;51.090;-1.832;2022-11-04T07:09:11;22.63;;;11.18;;
51848;SDS011;38952;51.090;-1.832;2022-11-04T07:11:40;22.25;;;11.50;;
51848;SDS011;38952;51.090;-1.832;2022-11-04T07:14:14;24.27;;;12.13;;
51848;SDS011;38952;51.090;-1.832;2022-11-04T07:16:40;26.15;;;11.70;;
51848;SDS011;38952;51.090;-1.832;2022-11-04T07:19:08;21.98;;;10.68;;
51848;SDS011;38952;51.090;-1.832;2022-11-04T07:24:40;25.02;;;11.77;;
51848;SDS011;38952;51.090;-1.832;2022-11-04T07:27:16;26.17;;;12.48;;
51848;SDS011;38952;51.090;-1.832;2022-11-04T07:29:42;22.83;;;12.63;;
51848;SDS011;38952;51.090;-1.832;2022-11-04T07:32:28;23.25;;;12.10;;
51848;SDS011;38952;51.090;-1.832;2022-11-04T07:34:53;22.63;;;12.00;;
51848;SDS011;38952;51.090;-1.832;2022-11-04T07:42:53;21.58;;;11.18;;
51848;SDS011;38952;51.090;-1.832;2022-11-04T07:45:40;23.67;;;11.52;;
51848;SDS011;38952;51.090;-1.832;2022-11-04T07:48:12;20.58;;;11.50;;
51848;SDS011;38952;51.090;-1.832;2022-11-04T07:50:38;22.98;;;10.70;;
51848;SDS011;38952;51.090;-1.832;2022-11-04T07:53:04;21.65;;;12.57;;
51848;SDS011;38952;51.090;-1.832;2022-11-04T07:58:36;20.98;;;11.93;;
51848;SDS011;38952;51.090;-1.832;2022-11-04T08:01:03;21.70;;;11.07;;
51848;SDS011;38952;51.090;-1.832;2022-11-04T08:03:42;18.73;;;10.60;;
51848;SDS011;38952;51.090;-1.832;2022-11-04T08:06:10;17.10;;;8.50;;
51848;SDS011;38952;51.090;-1.832;2022-11-04T08:08:40;29.80;;;12.70;;
51848;SDS011;38952;51.090;-1.832;2022-11-04T08:11:18;20.70;;;10.68;;
51848;SDS011;38952;51.090;-1.832;2022-11-04T08:14:06;16.88;;;9.23;;
51848;SDS011;38952;51.090;-1.832;2022-11-04T08:16:44;23.40;;;11.43;;
51848;SDS011;38952;51.090;-1.832;2022-11-04T08:19:12;18.98;;;10.05;;
51848;SDS011;38952;51.090;-1.832;2022-11-04T08:21:38;17.10;;;10.60;;
51848;SDS011;38952;51.090;-1.832;2022-11-04T08:24:21;17.10;;;9.52;;
51848;SDS011;38952;51.090;-1.832;2022-11-04T08:26:57;19.73;;;13.35;;
51848;SDS011;38952;51.090;-1.832;2022-11-04T08:29:36;30.33;;;15.63;;
51848;SDS011;38952;51.090;-1.832;2022-11-04T08:32:08;33.33;;;17.67;;
51848;SDS011;38952;51.090;-1.832;2022-11-04T08:34:43;37.00;;;18.52;;
51848;SDS011;38952;51.090;-1.832;2022-11-04T08:37:12;38.80;;;17.80;;
51848;SDS011;38952;51.090;-1.832;2022-11-04T08:39:57;31.30;;;15.38;;
51848;SDS011;38952;51.090;-1.832;2022-11-04T08:42:22;34.13;;;16.45;;
51848;SDS011;38952;51.090;-1.832;2022-11-04T08:44:59;35.65;;;16.38;;
51848;SDS011;38952;51.090;-1.832;2022-11-04T08:47:31;29.23;;;14.25;;
51848;SDS011;38952;51.090;-1.832;2022-11-04T08:56:30;35.63;;;13.15;;
51848;SDS011;38952;51.090;-1.832;2022-11-04T08:58:57;27.40;;;12.55;;
51848;SDS011;38952;51.090;-1.832;2022-11-04T09:01:28;24.25;;;12.77;;
51848;SDS011;38952;51.090;-1.832;2022-11-04T09:03:56;21.20;;;11.52;;
51848;SDS011;38952;51.090;-1.832;2022-11-04T09:06:23;26.10;;;12.82;;
51848;SDS011;38952;51.090;-1.832;2022-11-04T09:09:02;24.83;;;11.32;;
51848;SDS011;38952;51.090;-1.832;2022-11-04T09:11:33;23.05;;;11.88;;
51848;SDS011;38952;51.090;-1.832;2022-11-04T09:14:02;21.75;;;10.38;;
51848;SDS011;38952;51.090;-1.832;2022-11-04T09:16:28;16.23;;;8.82;;
51848;SDS011;38952;51.090;-1.832;2022-11-04T09:18:55;17.02;;;8.23;;
51848;SDS011;38952;51.090;-1.832;2022-11-04T09:21:22;27.15;;;9.15;;
51848;SDS011;38952;51.090;-1.832;2022-11-04T09:23:53;13.40;;;6.50;;
51848;SDS011;38952;51.090;-1.832;2022-11-04T09:26:19;14.75;;;7.00;;
51848;SDS011;38952;51.090;-1.832;2022-11-04T09:28:46;16.77;;;7.18;;
51848;SDS011;38952;51.090;-1.832;2022-11-04T09:31:13;20.15;;;7.10;;
51848;SDS011;38952;51.090;-1.832;2022-11-04T09:33:40;17.67;;;6.20;;
51848;SDS011;38952;51.090;-1.832;2022-11-04T09:36:08;11.68;;;4.72;;
51848;SDS011;38952;51.090;-1.832;2022-11-04T09:38:37;6.18;;;3.78;;
51848;SDS011;38952;51.090;-1.832;2022-11-04T09:44:03;11.18;;;5.10;;
51848;SDS011;38952;51.090;-1.832;2022-11-04T09:46:30;8.15;;;3.55;;
51848;SDS011;38952;51.090;-1.832;2022-11-04T09:48:58;7.30;;;3.95;;
51848;SDS011;38952;51.090;-1.832;2022-11-04T09:51:27;15.68;;;3.80;;
51848;SDS011;38952;51.090;-1.832;2022-11-04T09:54:03;9.00;;;3.55;;
51848;SDS011;38952;51.090;-1.832;2022-11-04T09:56:38;7.93;;;2.53;;
51848;SDS011;38952;51.090;-1.832;2022-11-04T09:59:09;4.22;;;1.80;;
51848;SDS011;38952;51.090;-1.832;2022-11-04T10:01:45;8.30;;;2.47;;
51848;SDS011;38952;51.090;-1.832;2022-11-04T10:09:56;8.38;;;2.22;;
51848;SDS011;38952;51.090;-1.832;2022-11-04T10:12:42;7.10;;;1.73;;
51848;SDS011;38952;51.090;-1.832;2022-11-04T10:26:43;6.60;;;2.00;;
51848;SDS011;38952;51.090;-1.832;2022-11-04T10:29:15;7.32;;;1.58;;
51848;SDS011;38952;51.090;-1.832;2022-11-04T10:31:59;6.43;;;1.67;;
51848;SDS011;38952;51.090;-1.832;2022-11-04T10:37:46;4.82;;;1.50;;
51848;SDS011;38952;51.090;-1.832;2022-11-04T10:40:36;4.30;;;1.20;;
51848;SDS011;38952;51.090;-1.832;2022-11-04T10:43:03;3.40;;;1.10;;
51848;SDS011;38952;51.090;-1.832;2022-11-04T10:45:42;5.28;;;1.15;;
51848;SDS011;38952;51.090;-1.832;2022-11-04T10:48:35;6.85;;;1.10;;
51848;SDS011;38952;51.090;-1.832;2022-11-04T10:51:07;1.77;;;0.90;;
51848;SDS011;38952;51.090;-1.832;2022-11-04T10:53:33;6.72;;;1.48;;
51848;SDS011;38952;51.090;-1.832;2022-11-04T10:56:21;3.65;;;1.42;;
51848;SDS011;38952;51.090;-1.832;2022-11-04T10:59:01;4.85;;;1.20;;
51848;SDS011;38952;51.090;-1.832;2022-11-04T11:01:50;1.15;;;0.60;;
51848;SDS011;38952;51.090;-1.832;2022-11-04T11:07:40;2.83;;;0.63;;
51848;SDS011;38952;51.090;-1.832;2022-11-04T11:10:14;1.98;;;0.70;;
51848;SDS011;38952;51.090;-1.832;2022-11-04T11:12:48;4.03;;;0.75;;
51848;SDS011;38952;51.090;-1.832;2022-11-04T11:15:36;2.35;;;0.70;;
51848;SDS011;38952;51.090;-1.832;2022-11-04T11:18:16;5.70;;;0.95;;
51848;SDS011;38952;51.090;-1.832;2022-11-04T11:21:04;4.43;;;1.05;;
51848;SDS011;38952;51.090;-1.832;2022-11-04T11:23:40;1.48;;;0.68;;
51848;SDS011;38952;51.090;-1.832;2022-11-04T11:26:18;6.82;;;1.00;;
51848;SDS011;38952;51.090;-1.832;2022-11-04T11:28:54;8.05;;;1.00;;
51848;SDS011;38952;51.090;-1.832;2022-11-04T11:31:34;1.90;;;0.60;;
51848;SDS011;38952;51.090;-1.832;2022-11-04T11:34:05;2.35;;;0.90;;
51848;SDS011;38952;51.090;-1.832;2022-11-04T11:36:40;6.53;;;0.85;;
51848;SDS011;38952;51.090;-1.832;2022-11-04T11:41:59;5.15;;;0.90;;
51848;SDS011;38952;51.090;-1.832;2022-11-04T11:44:41;2.38;;;0.73;;
51848;SDS011;38952;51.090;-1.832;2022-11-04T11:47:24;2.17;;;0.60;;
51848;SDS011;38952;51.090;-1.832;2022-11-04T11:52:42;3.00;;;0.80;;
51848;SDS011;38952;51.090;-1.832;2022-11-04T12:03:46;3.38;;;0.70;;
51848;SDS011;38952;51.090;-1.832;2022-11-04T12:12:33;5.00;;;0.88;;
51848;SDS011;38952;51.090;-1.832;2022-11-04T12:15:07;2.78;;;0.93;;
51848;SDS011;38952;51.090;-1.832;2022-11-04T12:28:21;3.75;;;1.13;;
51848;SDS011;38952;51.090;-1.832;2022-11-04T12:31:06;1.85;;;0.80;;
51848;SDS011;38952;51.090;-1.832;2022-11-04T12:33:38;2.95;;;0.77;;
51848;SDS011;38952;51.090;-1.832;2022-11-04T12:36:32;5.38;;;1.00;;
51848;SDS011;38952;51.090;-1.832;2022-11-04T12:41:41;2.47;;;1.08;;
51848;SDS011;38952;51.090;-1.832;2022-11-04T12:46:57;1.20;;;0.68;;
51848;SDS011;38952;51.090;-1.832;2022-11-04T13:00:41;4.60;;;0.93;;
51848;SDS011;38952;51.090;-1.832;2022-11-04T13:03:14;6.22;;;0.70;;
51848;SDS011;38952;51.090;-1.832;2022-11-04T13:05:52;7.15;;;1.48;;
51848;SDS011;38952;51.090;-1.832;2022-11-04T13:11:16;4.28;;;1.20;;
51848;SDS011;38952;51.090;-1.832;2022-11-04T13:14:05;3.60;;;0.88;;
51848;SDS011;38952;51.090;-1.832;2022-11-04T13:16:40;2.17;;;0.65;;
51848;SDS011;38952;51.090;-1.832;2022-11-04T13:21:59;1.92;;;0.65;;
51848;SDS011;38952;51.090;-1.832;2022-11-04T13:24:30;1.63;;;0.52;;
51848;SDS011;38952;51.090;-1.832;2022-11-04T13:27:03;1.70;;;0.52;;
51848;SDS011;38952;51.090;-1.832;2022-11-04T13:29:50;1.48;;;0.63;;
51848;SDS011;38952;51.090;-1.832;2022-11-04T13:35:36;1.83;;;0.50;;
51848;SDS011;38952;51.090;-1.832;2022-11-04T13:38:04;2.10;;;0.82;;
51848;SDS011;38952;51.090;-1.832;2022-11-04T13:43:46;3.63;;;0.75;;
51848;SDS011;38952;51.090;-1.832;2022-11-04T13:46:17;4.45;;;1.25;;
51848;SDS011;38952;51.090;-1.832;2022-11-04T13:51:21;5.47;;;0.95;;
51848;SDS011;38952;51.090;-1.832;2022-11-04T13:53:51;2.70;;;1.23;;
51848;SDS011;38952;51.090;-1.832;2022-11-04T13:56:37;2.17;;;0.80;;
51848;SDS011;38952;51.090;-1.832;2022-11-04T13:59:16;4.07;;;0.75;;
51848;SDS011;38952;51.090;-1.832;2022-11-04T14:04:51;3.60;;;1.20;;
51848;SDS011;38952;51.090;-1.832;2022-11-04T14:07:23;1.40;;;0.63;;
51848;SDS011;38952;51.090;-1.832;2022-11-04T14:18:42;2.88;;;0.70;;
51848;SDS011;38952;51.090;-1.832;2022-11-04T14:24:11;3.97;;;0.98;;
51848;SDS011;38952;51.090;-1.832;2022-11-04T14:26:41;4.65;;;1.35;;
51848;SDS011;38952;51.090;-1.832;2022-11-04T14:29:22;4.57;;;1.00;;
51848;SDS011;38952;51.090;-1.832;2022-11-04T14:31:57;3.00;;;0.90;;
51848;SDS011;38952;51.090;-1.832;2022-11-04T14:34:29;4.00;;;0.85;;
51848;SDS011;38952;51.090;-1.832;2022-11-04T14:36:57;2.67;;;0.80;;
51848;SDS011;38952;51.090;-1.832;2022-11-04T14:46:27;5.57;;;1.48;;
51848;SDS011;38952;51.090;-1.832;2022-11-04T14:49:05;3.35;;;1.05;;
51848;SDS011;38952;51.090;-1.832;2022-11-04T14:51:32;4.63;;;1.23;;
51848;SDS011;38952;51.090;-1.832;2022-11-04T14:54:24;3.80;;;0.98;;
51848;SDS011;38952;51.090;-1.832;2022-11-04T14:57:06;4.75;;;1.77;;
51848;SDS011;38952;51.090;-1.832;2022-11-04T14:59:46;5.15;;;0.90;;
51848;SDS011;38952;51.090;-1.832;2022-11-04T15:02:36;2.28;;;1.05;;
51848;SDS011;38952;51.090;-1.832;2022-11-04T15:05:01;3.83;;;0.98;;
51848;SDS011;38952;51.090;-1.832;2022-11-04T15:13:02;4.70;;;1.10;;
51848;SDS011;38952;51.090;-1.832;2022-11-04T15:15:32;6.53;;;1.50;;
51848;SDS011;38952;51.090;-1.832;2022-11-04T15:18:04;6.30;;;1.02;;
51848;SDS011;38952;51.090;-1.832;2022-11-04T15:20:51;2.17;;;1.05;;
51848;SDS011;38952;51.090;-1.832;2022-11-04T15:23:29;4.28;;;1.00;;
51848;SDS011;38952;51.090;-1.832;2022-11-04T15:25:57;4.05;;;0.93;;
51848;SDS011;38952;51.090;-1.832;2022-11-04T15:28:31;2.63;;;0.90;;
51848;SDS011;38952;51.090;-1.832;2022-11-04T15:33:45;4.57;;;1.20;;
51848;SDS011;38952;51.090;-1.832;2022-11-04T15:36:17;3.47;;;1.10;;
51848;SDS011;38952;51.090;-1.832;2022-11-04T15:45:24;3.92;;;1.10;;
51848;SDS011;38952;51.090;-1.832;2022-11-04T15:51:12;1.98;;;0.55;;
51848;SDS011;38952;51.090;-1.832;2022-11-04T15:56:23;5.03;;;0.90;;
51848;SDS011;38952;51.090;-1.832;2022-11-04T15:58:54;2.78;;;0.88;;
51848;SDS011;38952;51.090;-1.832;2022-11-04T16:01:22;2.58;;;0.68;;
51848;SDS011;38952;51.090;-1.832;2022-11-04T16:04:10;5.43;;;1.00;;
51848;SDS011;38952;51.090;-1.832;2022-11-04T16:06:40;2.88;;;0.88;;
51848;SDS011;38952;51.090;-1.832;2022-11-04T16:09:26;5.65;;;1.00;;
51848;SDS011;38952;51.090;-1.832;2022-11-04T16:12:16;5.72;;;1.00;;
51848;SDS011;38952;51.090;-1.832;2022-11-04T16:14:55;3.35;;;0.90;;
51848;SDS011;38952;51.090;-1.832;2022-11-04T16:17:22;3.13;;;0.60;;
51848;SDS011;38952;51.090;-1.832;2022-11-04T16:19:52;3.25;;;1.25;;
51848;SDS011;38952;51.090;-1.832;2022-11-04T16:22:33;4.07;;;1.00;;
51848;SDS011;38952;51.090;-1.832;2022-11-04T16:25:03;5.68;;;0.85;;
51848;SDS011;38952;51.090;-1.832;2022-11-04T16:27:38;3.17;;;0.80;;
51848;SDS011;38952;51.090;-1.832;2022-11-04T16:32:49;3.30;;;0.60;;
51848;SDS011;38952;51.090;-1.832;2022-11-04T16:38:13;5.78;;;0.98;;
51848;SDS011;38952;51.090;-1.832;2022-11-04T16:40:38;2.40;;;0.80;;
51848;SDS011;38952;51.090;-1.832;2022-11-04T16:43:07;3.20;;;1.05;;
51848;SDS011;38952;51.090;-1.832;2022-11-04T16:45:35;2.97;;;1.05;;
51848;SDS011;38952;51.090;-1.832;2022-11-04T16:48:16;4.00;;;1.17;;
51848;SDS011;38952;51.090;-1.832;2022-11-04T16:50:50;6.30;;;1.52;;
51848;SDS011;38952;51.090;-1.832;2022-11-04T16:53:18;2.45;;;1.23;;
51848;SDS011;38952;51.090;-1.832;2022-11-04T16:55:44;5.15;;;1.60;;
51848;SDS011;38952;51.090;-1.832;2022-11-04T16:58:12;4.32;;;1.77;;
51848;SDS011;38952;51.090;-1.832;2022-11-04T17:00:41;2.58;;;1.20;;
51848;SDS011;38952;51.090;-1.832;2022-11-04T17:03:19;3.40;;;1.15;;
51848;SDS011;38952;51.090;-1.832;2022-11-04T17:05:48;9.30;;;1.75;;
51848;SDS011;38952;51.090;-1.832;2022-11-04T17:08:18;2.38;;;1.38;;
51848;SDS011;38952;51.090;-1.832;2022-11-04T17:10:43;9.73;;;1.80;;
51848;SDS011;38952;51.090;-1.832;2022-11-04T17:13:11;2.63;;;1.15;;
51848;SDS011;38952;51.090;-1.832;2022-11-04T17:15:37;3.40;;;1.25;;
51848;SDS011;38952;51.090;-1.832;2022-11-04T17:18:06;3.97;;;1.27;;
51848;SDS011;38952;51.090;-1.832;2022-11-04T17:20:34;11.90;;;1.60;;
51848;SDS011;38952;51.090;-1.832;2022-11-04T17:23:09;2.97;;;1.10;;
51848;SDS011;38952;51.090;-1.832;2022-11-04T17:25:36;5.50;;;1.27;;
51848;SDS011;38952;51.090;-1.832;2022-11-04T17:28:02;4.93;;;1.90;;
51848;SDS011;38952;51.090;-1.832;2022-11-04T17:30:35;5.43;;;1.33;;
51848;SDS011;38952;51.090;-1.832;2022-11-04T17:33:01;5.22;;;1.38;;
51848;SDS011;38952;51.090;-1.832;2022-11-04T17:35:31;4.45;;;1.40;;
51848;SDS011;38952;51.090;-1.832;2022-11-04T17:38:00;9.25;;;1.63;;
51848;SDS011;38952;51.090;-1.832;2022-11-04T17:40:26;5.57;;;1.55;;
51848;SDS011;38952;51.090;-1.832;2022-11-04T17:42:51;5.15;;;1.30;;
51848;SDS011;38952;51.090;-1.832;2022-11-04T17:45:35;3.65;;;1.08;;
51848;SDS011;38952;51.090;-1.832;2022-11-04T17:48:10;4.80;;;1.33;;
51848;SDS011;38952;51.090;-1.832;2022-11-04T17:51:05;3.90;;;1.05;;
51848;SDS011;38952;51.090;-1.832;2022-11-04T17:53:31;5.80;;;1.67;;
51848;SDS011;38952;51.090;-1.832;2022-11-04T17:56:13;4.15;;;1.63;;
51848;SDS011;38952;51.090;-1.832;2022-11-04T17:58:46;4.80;;;1.98;;
51848;SDS011;38952;51.090;-1.832;2022-11-04T18:01:13;11.10;;;1.48;;
51848;SDS011;38952;51.090;-1.832;2022-11-04T18:03:50;2.72;;;1.08;;
51848;SDS011;38952;51.090;-1.832;2022-11-04T18:06:25;1.55;;;1.00;;
51848;SDS011;38952;51.090;-1.832;2022-11-04T18:08:54;5.60;;;1.30;;
51848;SDS011;38952;51.090;-1.832;2022-11-04T18:11:21;4.95;;;1.30;;
51848;SDS011;38952;51.090;-1.832;2022-11-04T18:14:09;4.97;;;1.35;;
51848;SDS011;38952;51.090;-1.832;2022-11-04T18:16:42;6.57;;;1.27;;
51848;SDS011;38952;51.090;-1.832;2022-11-04T18:19:10;2.50;;;1.20;;
51848;SDS011;38952;51.090;-1.832;2022-11-04T18:21:43;4.82;;;1.05;;
51848;SDS011;38952;51.090;-1.832;2022-11-04T18:24:22;5.57;;;1.55;;
51848;SDS011;38952;51.090;-1.832;2022-11-04T18:26:48;1.45;;;1.13;;
51848;SDS011;38952;51.090;-1.832;2022-11-04T18:29:14;2.88;;;1.08;;
51848;SDS011;38952;51.090;-1.832;2022-11-04T18:31:43;5.40;;;1.25;;
51848;SDS011;38952;51.090;-1.832;2022-11-04T18:34:16;2.40;;;1.00;;
51848;SDS011;38952;51.090;-1.832;2022-11-04T18:37:12;5.47;;;1.10;;
51848;SDS011;38952;51.090;-1.832;2022-11-04T18:39:43;2.05;;;1.20;;
51848;SDS011;38952;51.090;-1.832;2022-11-04T18:42:09;5.40;;;1.23;;
51848;SDS011;38952;51.090;-1.832;2022-11-04T18:44:40;6.50;;;1.50;;
51848;SDS011;38952;51.090;-1.832;2022-11-04T18:47:08;2.97;;;1.33;;
51848;SDS011;38952;51.090;-1.832;2022-11-04T18:49:34;4.90;;;1.20;;
51848;SDS011;38952;51.090;-1.832;2022-11-04T18:51:59;5.57;;;1.40;;
51848;SDS011;38952;51.090;-1.832;2022-11-04T18:54:25;2.40;;;1.27;;
51848;SDS011;38952;51.090;-1.832;2022-11-04T18:56:52;2.35;;;1.27;;
51848;SDS011;38952;51.090;-1.832;2022-11-04T18:59:18;3.88;;;1.40;;
51848;SDS011;38952;51.090;-1.832;2022-11-04T19:08:58;6.90;;;1.77;;
51848;SDS011;38952;51.090;-1.832;2022-11-04T19:11:41;4.95;;;1.65;;